Lowell, Wisconsin
Current Conditions -  °F | °C
As of 12:55 PM on Monday 20 Oct 2014 (Local Time) from KUNU Reporting Station
Overcast Overcast  
Wind Chill: 54°   Ceiling: 2600
Heat Index: 54°   Visibility: 10mi
Dew Point: 44°   Wind: 12mph
Humidity: 70%   Direction: 320°NW
Pressure: 29.9"   Gusts: NA
Location:  43.34°N, 88.82°W
Report Text: KUNU 201755Z AUTO 32010KT 10SM OVC026 12/07 A2990 RMK AO2 T01200067 10130 20047
Loading
Personal Weather Stations






























Interactive Weather Map
Tropical Storm Tracking
New forecast layout! Learn more

10-Day Weather Forecast

Advertisements
Track Severe Weather on mobile